createdAt,value
2024-04-10T00:01:59.717Z,0.50
2024-04-10T00:04:27.229Z,0.40
2024-04-10T00:06:56.191Z,0.40
2024-04-10T00:09:25.340Z,0.40
2024-04-10T00:11:52.197Z,0.40
2024-04-10T00:14:18.980Z,0.40
2024-04-10T00:16:45.674Z,0.50
2024-04-10T00:19:12.484Z,0.50
2024-04-10T00:21:39.296Z,0.40
2024-04-10T00:24:06.180Z,0.40
2024-04-10T00:26:33.114Z,0.60
2024-04-10T00:29:02.127Z,0.50
2024-04-10T00:31:28.866Z,0.43
2024-04-10T00:34:00.378Z,0.50
2024-04-10T00:36:28.247Z,0.40
2024-04-10T00:38:54.904Z,0.68
2024-04-10T00:41:24.216Z,0.50
2024-04-10T00:43:50.962Z,0.40
2024-04-10T00:46:22.864Z,0.52
2024-04-10T00:48:53.041Z,0.60
2024-04-10T00:51:21.515Z,0.60
2024-04-10T00:53:48.526Z,0.73
2024-04-10T00:56:25.480Z,0.60
2024-04-10T00:58:54.221Z,0.52
2024-04-10T01:01:21.083Z,0.60
2024-04-10T01:03:51.245Z,0.70
2024-04-10T01:06:18.257Z,0.60
2024-04-10T01:08:47.040Z,0.75
2024-04-10T01:11:13.933Z,0.75
2024-04-10T01:13:43.038Z,0.70
2024-04-10T01:16:12.006Z,0.70
2024-04-10T01:18:41.171Z,0.60
2024-04-10T01:21:07.871Z,0.80
2024-04-10T01:23:34.651Z,1.10
2024-04-10T01:26:01.415Z,1.30
2024-04-10T01:28:30.564Z,1.10
2024-04-10T01:30:57.244Z,0.87
2024-04-10T01:33:25.730Z,0.85
2024-04-10T01:35:52.687Z,0.75
2024-04-10T01:38:21.581Z,0.88
2024-04-10T01:40:51.335Z,0.80
2024-04-10T01:43:18.047Z,1.00
2024-04-10T01:45:47.716Z,1.10
2024-04-10T01:48:17.176Z,1.20
2024-04-10T01:50:43.977Z,1.00
2024-04-10T01:53:13.702Z,0.90
2024-04-10T01:55:40.442Z,1.00
2024-04-10T01:58:12.315Z,1.10
2024-04-10T02:00:39.148Z,0.88
2024-04-10T02:03:06.222Z,0.88
2024-04-10T02:05:33.190Z,0.90
2024-04-10T02:08:05.172Z,0.80
2024-04-10T02:10:33.912Z,0.73
2024-04-10T02:13:05.208Z,1.27
2024-04-10T02:15:32.016Z,0.88
2024-04-10T02:17:58.989Z,0.77
2024-04-10T02:20:25.946Z,0.90
2024-04-10T02:22:52.768Z,0.70
2024-04-10T02:25:21.690Z,1.00
2024-04-10T02:27:48.471Z,1.08
2024-04-10T02:30:15.274Z,0.85
2024-04-10T02:32:42.098Z,0.87
2024-04-10T02:35:08.934Z,0.85
2024-04-10T02:37:37.703Z,1.08
2024-04-10T02:40:05.359Z,0.85
2024-04-10T02:42:35.082Z,1.00
2024-04-10T02:45:05.246Z,0.90
2024-04-10T02:47:32.010Z,0.90
2024-04-10T02:50:01.909Z,0.98
2024-04-10T02:52:31.926Z,1.20
2024-04-10T02:54:58.626Z,1.33
2024-04-10T02:57:27.616Z,1.27
2024-04-10T02:59:54.263Z,1.42
2024-04-10T03:02:23.600Z,1.10
2024-04-10T03:04:50.429Z,1.38
2024-04-10T03:07:19.336Z,1.10
2024-04-10T03:09:48.425Z,1.57
2024-04-10T03:12:15.236Z,1.38
2024-04-10T03:14:43.993Z,1.27
2024-04-10T03:17:14.466Z,1.15
2024-04-10T03:19:46.191Z,1.25
2024-04-10T03:22:13.449Z,1.40
2024-04-10T03:24:42.362Z,1.48
2024-04-10T03:27:11.726Z,1.40
2024-04-10T03:29:38.496Z,1.73
2024-04-10T03:32:07.873Z,1.75
2024-04-10T03:34:34.590Z,1.70
2024-04-10T03:37:01.312Z,1.45
2024-04-10T03:39:27.999Z,1.95
2024-04-10T03:41:54.692Z,1.63
2024-04-10T03:44:24.638Z,1.95
2024-04-10T03:46:53.813Z,1.90
2024-04-10T03:49:20.536Z,1.95
2024-04-10T03:51:49.422Z,2.15
2024-04-10T03:54:16.162Z,2.45
2024-04-10T03:56:45.344Z,2.50
2024-04-10T03:59:12.089Z,2.50
2024-04-10T04:01:38.829Z,1.70
2024-04-10T04:04:08.238Z,2.03
2024-04-10T04:06:37.300Z,2.15
2024-04-10T04:09:09.538Z,2.13
2024-04-10T04:11:41.375Z,1.90
2024-04-10T04:14:08.595Z,1.52
2024-04-10T04:16:38.128Z,1.75
2024-04-10T04:19:04.893Z,2.22
2024-04-10T04:21:32.889Z,1.83
2024-04-10T04:23:59.997Z,2.07
2024-04-10T04:26:29.182Z,2.22
2024-04-10T04:28:55.999Z,2.00
2024-04-10T04:31:25.031Z,1.98
2024-04-10T04:33:51.953Z,2.17
2024-04-10T04:36:23.439Z,2.20
2024-04-10T04:38:52.601Z,2.03
2024-04-10T04:41:22.144Z,2.00
2024-04-10T04:43:48.982Z,2.10
2024-04-10T04:46:20.937Z,2.13
2024-04-10T04:48:47.803Z,1.70
2024-04-10T04:51:19.412Z,2.13
2024-04-10T04:53:46.139Z,2.50
2024-04-10T04:56:15.169Z,1.83
2024-04-10T04:58:46.421Z,2.17
2024-04-10T05:01:13.152Z,1.60
2024-04-10T05:04:01.146Z,2.30
2024-04-10T05:06:28.278Z,1.67
2024-04-10T05:08:55.059Z,1.45
2024-04-10T05:11:22.652Z,1.52
2024-04-10T05:13:49.592Z,1.87
2024-04-10T05:16:18.552Z,1.92
2024-04-10T05:18:45.571Z,2.10
2024-04-10T05:21:12.271Z,1.80
2024-04-10T05:23:41.559Z,1.75
2024-04-10T05:26:08.271Z,1.83
2024-04-10T05:28:37.581Z,1.80
2024-04-10T05:31:05.688Z,2.42
2024-04-10T05:33:32.531Z,2.40
2024-04-10T05:36:00.532Z,2.42
2024-04-10T05:38:33.503Z,3.40
2024-04-10T05:41:00.360Z,2.45
2024-04-10T05:43:29.547Z,2.75
2024-04-10T05:45:56.964Z,2.80
2024-04-10T05:48:23.907Z,2.50
2024-04-10T05:50:56.974Z,2.83
2024-04-10T05:53:26.277Z,3.53
2024-04-10T05:55:55.418Z,2.67
2024-04-10T05:58:24.427Z,2.50
2024-04-10T06:00:52.428Z,2.63
2024-04-10T06:03:23.178Z,2.20
2024-04-10T06:05:50.113Z,2.20
2024-04-10T06:08:17.021Z,2.50
2024-04-10T06:10:43.936Z,2.45
2024-04-10T06:13:10.700Z,2.67
2024-04-10T06:15:37.504Z,2.03
2024-04-10T06:18:04.506Z,2.60
2024-04-10T06:20:31.275Z,2.50
2024-04-10T06:22:58.595Z,2.17
2024-04-10T06:25:28.126Z,2.45
2024-04-10T06:27:57.130Z,2.40
2024-04-10T06:30:23.921Z,2.13
2024-04-10T06:32:53.105Z,2.63
2024-04-10T06:35:20.430Z,2.88
2024-04-10T06:37:49.700Z,2.58
2024-04-10T06:40:18.821Z,2.57
2024-04-10T06:42:47.804Z,2.50
2024-04-10T06:45:16.821Z,2.63
2024-04-10T06:47:44.209Z,2.75
2024-04-10T06:50:14.296Z,2.67
2024-04-10T06:52:46.209Z,2.53
2024-04-10T06:55:12.957Z,2.70
2024-04-10T06:57:41.873Z,2.63
2024-04-10T07:00:14.555Z,3.00
2024-04-10T07:02:42.942Z,3.00
2024-04-10T07:05:09.788Z,3.03
2024-04-10T07:07:36.492Z,2.90
2024-04-10T07:10:06.559Z,3.20
2024-04-10T07:12:34.261Z,3.30
2024-04-10T07:15:04.162Z,3.33
2024-04-10T07:17:31.893Z,3.60
2024-04-10T07:19:58.812Z,3.08
2024-04-10T07:22:30.369Z,3.85
2024-04-10T07:24:57.125Z,3.20
2024-04-10T07:27:23.887Z,3.30
2024-04-10T07:29:52.687Z,3.03
2024-04-10T07:32:19.499Z,3.30
2024-04-10T07:34:46.250Z,7.22
2024-04-10T07:37:15.440Z,4.28
2024-04-10T07:39:44.690Z,3.58
2024-04-10T07:42:13.728Z,3.67
2024-04-10T07:44:47.806Z,2.92
2024-04-10T07:47:16.905Z,3.20
2024-04-10T07:49:47.523Z,3.30
2024-04-10T07:52:14.210Z,3.20
2024-04-10T07:54:40.949Z,3.17
2024-04-10T07:57:10.100Z,3.22
2024-04-10T07:59:38.085Z,3.15
2024-04-10T08:02:07.846Z,2.50
2024-04-10T08:04:34.579Z,3.00
2024-04-10T08:07:04.653Z,2.90
2024-04-10T08:09:35.974Z,2.83
2024-04-10T08:12:07.537Z,2.80
2024-04-10T08:14:36.915Z,2.55
2024-04-10T08:17:06.745Z,2.20
2024-04-10T08:19:38.242Z,2.30
2024-04-10T08:22:05.957Z,2.30
2024-04-10T08:24:32.620Z,2.53
2024-04-10T08:27:03.412Z,2.20
2024-04-10T08:29:30.173Z,2.15
2024-04-10T08:32:00.239Z,2.70
2024-04-10T08:34:29.938Z,2.72
2024-04-10T08:36:57.488Z,2.42
2024-04-10T08:39:27.226Z,1.58
2024-04-10T08:41:57.125Z,2.10
2024-04-10T08:44:29.782Z,1.60
2024-04-10T08:46:58.548Z,1.30
2024-04-10T08:49:30.646Z,2.15
2024-04-10T08:51:57.799Z,1.50
2024-04-10T08:54:25.054Z,1.63
2024-04-10T08:56:51.742Z,1.23
2024-04-10T08:59:18.417Z,0.70
2024-04-10T09:01:47.442Z,0.70
2024-04-10T09:04:16.182Z,0.80
2024-04-10T09:06:45.296Z,1.33
2024-04-10T09:09:16.445Z,1.10
2024-04-10T09:11:43.623Z,0.80
2024-04-10T09:14:16.520Z,1.10
2024-04-10T09:16:50.547Z,1.00
2024-04-10T09:19:19.073Z,1.00
2024-04-10T09:21:56.055Z,0.80
2024-04-10T09:24:30.628Z,0.70
2024-04-10T09:27:00.843Z,0.70
2024-04-10T09:29:31.490Z,0.90
2024-04-10T09:32:09.443Z,0.70
2024-04-10T09:34:37.109Z,0.70
2024-04-10T09:37:09.922Z,1.25
2024-04-10T09:39:37.051Z,0.82
2024-04-10T09:42:10.725Z,0.73
2024-04-10T09:44:42.605Z,1.00
2024-04-10T09:47:15.642Z,0.90
2024-04-10T09:49:46.286Z,0.60
2024-04-10T09:52:16.124Z,1.50
2024-04-10T09:54:44.201Z,0.70
2024-04-10T09:57:13.129Z,1.20
2024-04-10T09:59:40.254Z,0.97
2024-04-10T10:02:09.435Z,0.70
2024-04-10T10:04:39.914Z,0.90
2024-04-10T10:07:06.713Z,0.90
2024-04-10T10:09:38.158Z,1.10
2024-04-10T10:12:05.356Z,0.83
2024-04-10T10:14:32.430Z,1.00
2024-04-10T10:18:33.666Z,0.70
2024-04-10T10:21:10.742Z,1.00
2024-04-10T10:23:45.768Z,1.00
2024-04-10T10:26:16.877Z,1.10
2024-04-10T10:28:48.379Z,1.00
2024-04-10T10:31:20.407Z,1.23
2024-04-10T10:33:49.908Z,1.13
2024-04-10T10:36:19.217Z,0.73
2024-04-10T10:38:50.842Z,1.13
2024-04-10T10:41:19.250Z,1.13
2024-04-10T10:43:48.732Z,0.80
2024-04-10T10:46:17.669Z,1.13
2024-04-10T10:48:44.711Z,0.85
2024-04-10T10:51:11.402Z,1.33
2024-04-10T10:53:40.411Z,1.07
2024-04-10T10:56:07.232Z,0.90
2024-04-10T10:58:34.106Z,0.88
2024-04-10T11:01:07.517Z,1.10
2024-04-10T11:03:34.581Z,1.00
2024-04-10T11:06:14.269Z,0.70
2024-04-10T11:08:41.502Z,1.00
2024-04-10T11:11:11.955Z,0.90
2024-04-10T11:13:51.334Z,1.20
2024-04-10T11:16:28.917Z,1.15
2024-04-10T11:18:56.282Z,0.93
2024-04-10T11:21:25.839Z,0.90
2024-04-10T11:23:55.467Z,0.95
2024-04-10T11:26:22.545Z,0.90
2024-04-10T11:28:54.853Z,1.10
2024-04-10T11:31:22.012Z,0.97
2024-04-10T11:33:49.219Z,0.98
2024-04-10T11:36:18.263Z,1.30
2024-04-10T11:38:45.263Z,1.10
2024-04-10T11:41:16.761Z,1.10
2024-04-10T11:43:43.461Z,0.80
2024-04-10T11:46:12.861Z,1.05
2024-04-10T11:48:40.150Z,1.15
2024-04-10T11:51:07.289Z,0.82
2024-04-10T11:53:37.052Z,0.80
2024-04-10T11:56:04.638Z,1.10
2024-04-10T11:58:31.742Z,1.20
2024-04-10T12:01:00.716Z,0.80
2024-04-10T12:03:27.621Z,1.00
2024-04-10T12:05:59.030Z,1.40
2024-04-10T12:08:28.009Z,1.00
2024-04-10T12:10:57.183Z,1.60
2024-04-10T12:13:23.982Z,1.10
2024-04-10T12:15:52.992Z,1.30
2024-04-10T12:18:19.847Z,1.15
2024-04-10T12:20:47.567Z,1.00
2024-04-10T12:23:14.344Z,0.80
2024-04-10T12:25:45.827Z,0.70
2024-04-10T12:28:12.537Z,1.00
2024-04-10T12:30:41.530Z,1.00
2024-04-10T12:33:08.415Z,0.90
2024-04-10T12:35:56.935Z,1.00
2024-04-10T12:38:23.941Z,1.35
2024-04-10T12:40:59.986Z,0.80
2024-04-10T12:43:31.495Z,1.35
2024-04-10T12:45:58.221Z,0.80
2024-04-10T12:48:25.053Z,0.88
2024-04-10T12:50:53.007Z,0.80
2024-04-10T12:53:19.837Z,0.70
2024-04-10T12:55:55.840Z,1.20
2024-04-10T12:58:24.832Z,0.80
2024-04-10T13:00:54.049Z,1.10
2024-04-10T13:03:25.963Z,1.38
2024-04-10T13:05:59.631Z,1.10
2024-04-10T13:08:27.346Z,1.02
2024-04-10T13:11:15.989Z,1.00
2024-04-10T13:13:44.753Z,0.90
2024-04-10T13:16:12.062Z,0.90
2024-04-10T13:18:45.600Z,0.90
2024-04-10T13:21:12.468Z,1.33
2024-04-10T13:23:42.272Z,1.47
2024-04-10T13:26:10.900Z,1.00
2024-04-10T13:28:39.280Z,1.63
2024-04-10T13:31:13.606Z,1.40
2024-04-10T13:33:45.953Z,1.08
2024-04-10T13:36:14.681Z,0.90
2024-04-10T13:38:47.041Z,0.95
2024-04-10T13:41:14.937Z,1.40
2024-04-10T13:43:47.935Z,1.08
2024-04-10T13:46:15.115Z,1.08
2024-04-10T13:48:45.400Z,1.10
2024-04-10T13:51:27.923Z,1.23
2024-04-10T13:53:55.388Z,1.35
2024-04-10T13:56:22.657Z,0.90
2024-04-10T13:58:50.323Z,1.00
2024-04-10T14:01:19.258Z,0.90
2024-04-10T14:03:48.098Z,1.17
2024-04-10T14:06:15.307Z,0.90
2024-04-10T14:08:43.699Z,1.52
2024-04-10T14:11:10.570Z,1.08
2024-04-10T14:13:38.373Z,1.30
2024-04-10T14:16:08.391Z,1.20
2024-04-10T14:18:38.349Z,0.90
2024-04-10T14:21:09.563Z,0.85
2024-04-10T14:23:39.713Z,0.90
2024-04-10T14:26:15.031Z,1.03
2024-04-10T14:28:42.537Z,1.65
2024-04-10T14:31:13.580Z,1.00
2024-04-10T14:33:42.927Z,1.10
2024-04-10T14:36:12.572Z,1.30
2024-04-10T14:38:44.725Z,0.83
2024-04-10T14:41:13.805Z,1.00
2024-04-10T14:43:40.636Z,0.85
2024-04-10T14:46:14.341Z,1.30
2024-04-10T14:48:44.819Z,1.10
2024-04-10T14:51:14.626Z,1.00
2024-04-10T14:53:43.782Z,1.00
2024-04-10T14:56:19.898Z,1.10
2024-04-10T14:58:49.651Z,0.90
2024-04-10T15:01:23.298Z,1.00
2024-04-10T15:03:55.262Z,1.03
2024-04-10T15:06:22.352Z,1.10
2024-04-10T15:08:49.540Z,0.88
2024-04-10T15:11:27.060Z,0.90
2024-04-10T15:13:59.074Z,1.00
2024-04-10T15:16:27.799Z,1.10
2024-04-10T15:19:02.624Z,0.93
2024-04-10T15:21:32.321Z,1.30
2024-04-10T15:23:59.252Z,1.00
2024-04-10T15:26:30.827Z,1.00
2024-04-10T15:28:57.552Z,1.10
2024-04-10T15:31:24.802Z,1.10
2024-04-10T15:33:51.674Z,0.95
2024-04-10T15:36:19.518Z,1.20
2024-04-10T15:38:46.374Z,1.20
2024-04-10T15:41:13.645Z,1.00
2024-04-10T15:43:42.578Z,1.00
2024-04-10T15:46:13.632Z,1.25
2024-04-10T15:48:44.793Z,1.00
2024-04-10T15:51:15.444Z,1.40
2024-04-10T15:53:43.184Z,0.87
2024-04-10T15:56:11.447Z,0.95
2024-04-10T15:58:40.064Z,0.95
2024-04-10T16:01:11.613Z,1.15
2024-04-10T16:03:44.064Z,1.08
2024-04-10T16:06:16.372Z,0.90
2024-04-10T16:08:43.824Z,1.15
2024-04-10T16:11:18.205Z,1.00
2024-04-10T16:13:45.867Z,0.90
2024-04-10T16:16:18.286Z,0.93
2024-04-10T16:18:46.446Z,1.30
2024-04-10T16:21:14.279Z,0.90
2024-04-10T16:23:47.406Z,1.30
2024-04-10T16:26:16.161Z,1.15
2024-04-10T16:28:45.112Z,1.13
2024-04-10T16:31:16.690Z,1.30
2024-04-10T16:33:46.448Z,0.93
2024-04-10T16:36:14.028Z,1.23
2024-04-10T16:38:41.654Z,1.27
2024-04-10T16:41:08.730Z,1.08
2024-04-10T16:43:38.051Z,0.83
2024-04-10T16:46:06.585Z,1.00
2024-04-10T16:48:33.541Z,1.02
2024-04-10T16:51:02.351Z,1.10
2024-04-10T16:53:29.366Z,1.33
2024-04-10T16:55:56.672Z,1.03
2024-04-10T16:58:23.724Z,0.80
2024-04-10T17:01:11.358Z,0.77
2024-04-10T17:03:43.730Z,0.65
2024-04-10T17:06:11.289Z,1.10
2024-04-10T17:08:40.551Z,0.63
2024-04-10T17:11:19.172Z,0.80
2024-04-10T17:13:48.603Z,0.85
2024-04-10T17:16:17.729Z,0.60
2024-04-10T17:19:03.351Z,1.02
2024-04-10T17:21:48.886Z,0.90
2024-04-10T17:24:19.168Z,0.88
2024-04-10T17:26:49.303Z,1.55
2024-04-10T17:29:23.147Z,1.50
2024-04-10T17:31:52.879Z,0.80
2024-04-10T17:34:20.358Z,0.70
2024-04-10T17:36:47.434Z,1.15
2024-04-10T17:39:14.318Z,0.90
2024-04-10T17:41:41.364Z,0.93
2024-04-10T17:44:08.128Z,1.10
2024-04-10T17:46:35.154Z,0.90
2024-04-10T17:49:09.922Z,0.90
2024-04-10T17:51:40.312Z,0.82
2024-04-10T17:54:07.069Z,0.75
2024-04-10T17:56:35.897Z,0.75
2024-04-10T17:59:06.208Z,0.90
2024-04-10T18:01:32.856Z,0.80
2024-04-10T18:04:03.003Z,0.80
2024-04-10T18:06:30.053Z,0.63
2024-04-10T18:08:59.993Z,0.88
2024-04-10T18:11:31.431Z,0.70
2024-04-10T18:14:00.391Z,0.80
2024-04-10T18:16:29.425Z,0.82
2024-04-10T18:18:58.348Z,0.60
2024-04-10T18:21:27.748Z,0.90
2024-04-10T18:23:56.928Z,0.70
2024-04-10T18:26:26.041Z,1.02
2024-04-10T18:28:52.691Z,0.60
2024-04-10T18:31:19.419Z,0.60
2024-04-10T18:33:46.316Z,0.80
2024-04-10T18:36:13.275Z,0.90
2024-04-10T18:38:41.892Z,0.70
2024-04-10T18:41:13.554Z,0.68
2024-04-10T18:43:42.853Z,0.70
2024-04-10T18:46:10.727Z,0.60
2024-04-10T18:48:41.512Z,0.60
2024-04-10T18:51:25.234Z,0.68
2024-04-10T18:53:52.234Z,0.98
2024-04-10T18:56:21.273Z,0.60
2024-04-10T18:58:48.231Z,2.15
2024-04-10T19:01:15.449Z,0.50
2024-04-10T19:03:45.281Z,1.08
2024-04-10T19:06:14.400Z,0.80
2024-04-10T19:08:46.841Z,0.68
2024-04-10T19:11:18.445Z,1.00
2024-04-10T19:13:45.356Z,1.23
2024-04-10T19:16:14.765Z,0.75
2024-04-10T19:18:44.418Z,0.80
2024-04-10T19:21:11.933Z,0.63
2024-04-10T19:23:38.874Z,0.77
2024-04-10T19:26:08.676Z,0.80
2024-04-10T19:28:35.654Z,0.70
2024-04-10T19:31:03.416Z,0.68
2024-04-10T19:33:30.878Z,0.90
2024-04-10T19:36:12.446Z,0.90
2024-04-10T19:38:45.557Z,0.70
2024-04-10T19:41:14.247Z,0.65
2024-04-10T19:43:45.290Z,0.82
2024-04-10T19:46:13.274Z,0.77
2024-04-10T19:48:40.411Z,0.77
2024-04-10T19:51:07.558Z,0.90
2024-04-10T19:53:35.350Z,0.80
2024-04-10T19:56:10.647Z,1.13
2024-04-10T19:58:38.927Z,1.00
2024-04-10T20:01:12.568Z,0.73
2024-04-10T20:03:43.182Z,0.87
2024-04-10T20:06:13.376Z,0.80
2024-04-10T20:08:41.377Z,0.68
2024-04-10T20:11:09.584Z,0.88
2024-04-10T20:13:38.888Z,0.88
2024-04-10T20:16:10.491Z,0.60
2024-04-10T20:18:40.775Z,0.90
2024-04-10T20:21:12.410Z,1.10
2024-04-10T20:23:42.181Z,1.00
2024-04-10T20:26:09.256Z,0.70
2024-04-10T20:28:38.795Z,0.77
2024-04-10T20:31:09.648Z,0.70
2024-04-10T20:33:43.259Z,0.90
2024-04-10T20:36:11.452Z,0.80
2024-04-10T20:38:39.073Z,0.90
2024-04-10T20:41:11.525Z,0.93
2024-04-10T20:43:43.748Z,0.80
2024-04-10T20:46:12.574Z,0.80
2024-04-10T20:48:43.504Z,0.88
2024-04-10T20:51:14.819Z,0.60
2024-04-10T20:53:45.506Z,0.70
2024-04-10T20:56:16.960Z,0.90
2024-04-10T20:58:43.985Z,0.80
2024-04-10T21:01:14.399Z,0.70
2024-04-10T21:03:45.622Z,0.85
2024-04-10T21:06:17.085Z,0.90
2024-04-10T21:09:06.145Z,0.75
2024-04-10T21:11:56.308Z,0.82
2024-04-10T21:14:42.554Z,0.70
2024-04-10T21:17:28.225Z,0.70
2024-04-10T21:20:13.209Z,0.70
2024-04-10T21:23:01.092Z,0.77
2024-04-10T21:25:53.382Z,0.80
2024-04-10T21:28:41.405Z,0.50
2024-04-10T21:31:29.251Z,0.60
2024-04-10T21:34:17.084Z,0.57
2024-04-10T21:37:04.736Z,0.80
2024-04-10T21:39:50.284Z,1.10
2024-04-10T21:42:38.054Z,0.60
2024-04-10T21:45:23.705Z,0.82
2024-04-10T21:48:09.155Z,0.80
2024-04-10T21:50:54.532Z,0.70
2024-04-10T21:53:40.073Z,0.80
2024-04-10T21:56:25.905Z,0.60
2024-04-10T21:59:12.333Z,0.50
2024-04-10T22:02:05.523Z,0.60
2024-04-10T22:04:56.483Z,0.95
2024-04-10T22:07:43.162Z,0.60
2024-04-10T22:10:10.040Z,0.60
2024-04-10T22:12:40.107Z,1.00
2024-04-10T22:15:11.688Z,0.90
2024-04-10T22:18:02.034Z,0.73
2024-04-10T22:20:49.609Z,0.63
2024-04-10T22:23:35.181Z,0.60
2024-04-10T22:26:02.465Z,0.80
2024-04-10T22:28:32.070Z,0.70
2024-04-10T22:31:01.828Z,0.70
2024-04-10T22:33:34.087Z,0.80
2024-04-10T22:36:03.593Z,0.93
2024-04-10T22:38:30.470Z,1.02
2024-04-10T22:40:57.206Z,0.70
2024-04-10T22:43:26.256Z,0.90
2024-04-10T22:45:58.789Z,0.70
2024-04-10T22:48:25.606Z,0.90
2024-04-10T22:50:55.808Z,1.00
2024-04-10T22:53:25.901Z,0.63
2024-04-10T22:55:52.581Z,0.80
2024-04-10T22:58:19.225Z,0.70
2024-04-10T23:00:48.275Z,1.00
2024-04-10T23:03:17.322Z,0.93
2024-04-10T23:05:51.858Z,0.77
2024-04-10T23:10:55.072Z,0.60
2024-04-10T23:13:21.770Z,0.70
2024-04-10T23:15:55.858Z,1.20
2024-04-10T23:18:32.648Z,0.80
2024-04-10T23:21:14.071Z,0.70
2024-04-10T23:23:40.794Z,0.75
2024-04-10T23:26:07.435Z,0.82
2024-04-10T23:28:34.137Z,0.80
2024-04-10T23:31:03.065Z,0.73
2024-04-10T23:33:32.318Z,0.70
2024-04-10T23:35:59.465Z,1.08
2024-04-10T23:38:26.210Z,0.60
2024-04-10T23:40:53.633Z,0.80
2024-04-10T23:43:20.344Z,0.70
2024-04-10T23:45:55.049Z,1.10
2024-04-10T23:48:25.966Z,1.20
2024-04-10T23:50:52.972Z,1.00
2024-04-10T23:53:19.672Z,1.00
2024-04-10T23:55:49.329Z,0.80
2024-04-10T23:58:18.221Z,0.80
